WetterOnline ( http://www.wetteronline.de )

Wetter aktuell Stapelburg

Aktuelles Wetter: Wernigerode (240m)

6-stündlich | Neueste Meldungen
Ortszeit Temperatur Wetter
Di, 19.02. 13:00 9.2° C bedeckt
Di, 19.02. 7:00 8.6° C bedeckt
Di, 19.02. 1:00 9.5° C wolkig
Mo, 18.02. 19:00 9.5° C wolkig
Mo, 18.02. 13:00 14.6° C wolkenlos
Mo, 18.02. 7:00 2.7° C wolkenlos
Mo, 18.02. 1:00 1.0° C wolkig
So, 17.02. 19:00 11.7° C wolkig
Ortszeit Temperatur Wetter
Di, 19.02. 15:30 9.3° C wolkenlos
Di, 19.02. 15:20 9.3° C wolkenlos
Di, 19.02. 15:10 9.6° C wolkenlos
Di, 19.02. 15:00 9.5° C wolkenlos
Di, 19.02. 14:50 9.5° C wolkenlos
Di, 19.02. 14:40 9.5° C fast wolkenlos
Di, 19.02. 14:30 9.6° C leicht bewölkt
Di, 19.02. 14:00 9.7° C wolkig
Di, 19.02. 13:30 9.8° C fast wolkenlos
Di, 19.02. 13:00 9.2° C bedeckt
Di, 19.02. 12:30 9.4° C bedeckt
Ortszeit Relative Feuchte Sichtweite
Di, 19.02. 13:00 51% 22 km
Di, 19.02. 7:00 59% 29 km
Di, 19.02. 1:00 48% 60 km
Mo, 18.02. 19:00 50% 40 km
Mo, 18.02. 13:00 32% 45 km
Mo, 18.02. 7:00 61% 65 km
Mo, 18.02. 1:00 74% 45 km
So, 17.02. 19:00 41% 30 km
Ortszeit Relative Feuchte Sichtweite
Di, 19.02. 15:30 51% 21 km
Di, 19.02. 15:20 51% -
Di, 19.02. 15:10 51% -
Di, 19.02. 15:00 51% 19 km
Di, 19.02. 14:50 51% -
Di, 19.02. 14:40 50% -
Di, 19.02. 14:30 51% 20 km
Di, 19.02. 14:00 51% 24 km
Di, 19.02. 13:30 50% 25 km
Di, 19.02. 13:00 51% 22 km
Di, 19.02. 12:30 53% 19 km
Ortszeit Niederschlagsmenge Niederschlagsart
Di, 19.02. 13:00 0.0 l/m2 in 6 Std. -
Di, 19.02. 7:00 0.0 l/m2 in 12 Std. -
Di, 19.02. 1:00 0.0 l/m2 in 6 Std. -
Mo, 18.02. 19:00 0.0 l/m2 in 12 Std. -
Mo, 18.02. 13:00 0.0 l/m2 in 6 Std. -
Mo, 18.02. 7:00 0.0 l/m2 in 12 Std. -
Mo, 18.02. 1:00 0.0 l/m2 in 6 Std. -
So, 17.02. 19:00 0.0 l/m2 in 12 Std. -
Ortszeit Niederschlagsmenge Niederschlagsart
Di, 19.02. 15:30 0.0 l/m2 in 1 Std. -
Di, 19.02. 15:20 keine Meldung -
Di, 19.02. 15:10 keine Meldung -
Di, 19.02. 15:00 0.0 l/m2 in 1 Std. -
Di, 19.02. 14:50 keine Meldung -
Di, 19.02. 14:40 keine Meldung -
Di, 19.02. 14:30 0.0 l/m2 in 1 Std. -
Di, 19.02. 14:00 0.0 l/m2 in 1 Std. -
Di, 19.02. 13:30 0.0 l/m2 in 1 Std. -
Di, 19.02. 13:00 0.0 l/m2 in 1 Std. -
Di, 19.02. 12:30 0.0 l/m2 in 1 Std. -
Ortszeit Stärke Spitze Richtung
km/h Bft. km/h Grad Sektor
Di, 19.02. 13:00 25 4 50 250° W
Di, 19.02. 7:00 24 4 43 230° SW
Di, 19.02. 1:00 6 1 37 340° N
Mo, 18.02. 19:00 4 1 25 350° N
Mo, 18.02. 13:00 6 1 22 40° NO
Mo, 18.02. 7:00 9 2 20 170° S
Mo, 18.02. 1:00 4 1 25 100° O
So, 17.02. 19:00 14 3 32 190° S
Ortszeit Stärke Spitze Richtung
km/h Bft. km/h Grad Sektor
Di, 19.02. 15:30 22 4 43 260° W
Di, 19.02. 15:20 22 4 - 260° W
Di, 19.02. 15:10 20 4 - 280° W
Di, 19.02. 15:00 29 5 47 270° W
Di, 19.02. 14:50 29 5 - 270° W
Di, 19.02. 14:40 25 4 - 270° W
Di, 19.02. 14:30 22 4 43 270° W
Di, 19.02. 14:00 18 3 54 260° W
Di, 19.02. 13:30 18 3 54 250° W
Di, 19.02. 13:00 25 4 40 250° W
Di, 19.02. 12:30 22 4 40 260° W
Ortszeit Untergrenze Bedeckung Gattung
total tief tief mittel hoch
Di, 19.02. 13:00 3600 m 8/8 8/8 - - -
Di, 19.02. 7:00 6300 m 8/8 8/8 - - -
Di, 19.02. 1:00 7200 m 8/8 0/8 - - -
Mo, 18.02. 19:00 6600 m 6/8 6/8 - - -
Mo, 18.02. 13:00 - 0/8 0/8 - - -
Mo, 18.02. 7:00 - 0/8 0/8 - - -
Mo, 18.02. 1:00 8700 m 8/8 0/8 - - -
So, 17.02. 19:00 8400 m 8/8 0/8 - - -
Ortszeit Bedeckungsgrad in Achtel und Wolkenuntergrenze
Di, 19.02. 15:30 keine Wolken
Di, 19.02. 15:20 keine Wolken
Di, 19.02. 15:10 keine Wolken
Di, 19.02. 15:00 keine Wolken
Di, 19.02. 14:50 keine Wolken
Di, 19.02. 14:40 1(1290m)
Di, 19.02. 14:30 3(1260m)
Di, 19.02. 14:00 2(1230m)
Di, 19.02. 13:30 1(4200m)
Di, 19.02. 13:00 8(3600m) 8(5100m) 8(6000m)
Di, 19.02. 12:30 7(3300m) 8(3900m) 8(5400m)
Ortszeit Luftdruck NN (hPa) Tendenz (hPa in 3 Std.)
Di, 19.02. 13:00 1017 + 0,2
Di, 19.02. 7:00 1015 + 0,3
Di, 19.02. 1:00 1015 - 0,5
Mo, 18.02. 19:00 1017 - 0,7
Mo, 18.02. 13:00 1019 - 1,3
Mo, 18.02. 7:00 1021 - 0,1
Mo, 18.02. 1:00 1022 - 0,1
So, 17.02. 19:00 1021 - 0,5
Ortszeit Luftdruck NN (hPa) Tendenz (hPa in 3 Std.)
Di, 19.02. 15:30 1017 + 0,2
Di, 19.02. 15:20 1017 keine Meldung
Di, 19.02. 15:10 1017 keine Meldung
Di, 19.02. 15:00 1017 0,0
Di, 19.02. 14:50 1017 keine Meldung
Di, 19.02. 14:40 1017 keine Meldung
Di, 19.02. 14:30 1017 - 0,3
Di, 19.02. 14:00 1016 - 0,3
Di, 19.02. 13:30 1017 + 0,1
Di, 19.02. 13:00 1017 + 0,2
Di, 19.02. 12:30 1017 + 0,5
Ortszeit Schneehöhe (cm)
Di, 19.02. 13:00 0
Di, 19.02. 7:00 0
Di, 19.02. 1:00 0
Mo, 18.02. 19:00 0
Mo, 18.02. 13:00 0
Mo, 18.02. 7:00 0
Mo, 18.02. 1:00 0
So, 17.02. 19:00 0
Ortszeit Schneehöhe (cm)
Di, 19.02. 15:30 0
Di, 19.02. 15:20 0
Di, 19.02. 15:10 0
Di, 19.02. 15:00 0
Di, 19.02. 14:50 0
Di, 19.02. 14:40 0
Di, 19.02. 14:30 0
Di, 19.02. 14:00 0
Di, 19.02. 13:30 0
Di, 19.02. 13:00 0
Di, 19.02. 12:30 0
Link zu dieser Seite / Seite empfehlen

Das Wetter in ...